Terminal Aerodrome Forecast
Issued by NWS

Home | Current Version | Previous Version | Text Only | Print | Product List | Glossary On
Versions: 1 2 3 4 5 6 7 8 9 10 11 12 13 14 15 16 17
000
FTUS46 KHNX 251150
TAFFAT
TAF
KFAT 251150Z 2512/2612 34007KT P6SM SKC
     FM251900 32015G20KT P6SM FEW040
     FM260300 32007KT P6SM SKC=

USA.gov is the U.S. government's official web portal to all federal, state and local government web resources and services.